Terminal Aerodrome Forecast
Issued by NWS Wilmington, NC

Home | Current Version | Previous Version | Text Only | Print | Product List | Glossary On
Versions: 1 2 3 4 5 6 7 8 9 10 11 12
000
FTUS42 KILM 212328
TAFLBT
TAF
KLBT 212328Z 2200/2224 09003KT P6SM BKN250
     FM220900 09002KT 4SM BR BKN250
     FM221400 12005KT P6SM BKN100 OVC250=

USA.gov is the U.S. government's official web portal to all federal, state and local government web resources and services.